Flight Track Log - Related Links

Times and Time Zones

All times are in EDT time to prevent confusion due to time zone crossing. See the KAP46 flight status page for this flight to view local times or setup timezone preferences in your user account.

Time Position Orientation Groundspeed Altitude Reporting Facility
EDT Latitude Longitude Course Direction KTS MPH feet Rate Location/Type
Sat 07:24:29 PM 43.5025 -74.1575 341° North 149 171 6,500  Level Boston Center
Sat 07:25:30 PM 43.5439 -74.1758 342° North 149 171 6,500  Level Boston Center
Sat 07:26:30 PM 43.5872 -74.1972 340° North 149 171 6,500  Level Boston Center
Sat 07:27:30 PM 43.6286 -74.2186 339° North 149 171 6,500  Level Boston Center
Sat 07:28:28 PM 43.6700 -74.2369 342° North 154 177 6,500  Level Boston Center
Sat 07:29:00 PM 43.6570 -74.2252 341° North  Level Estimated
Sat 07:29:29 PM 43.7136 -74.2583 340° North 154 177 6,500  Level Boston Center
Sat 07:30:29 PM 43.7589 -74.2797 341° North 154 177 6,500  Level Boston Center
Sat 07:31:30 PM 43.7983 -74.2983 341° North 154 177 6,500  Level Boston Center
Sat 07:32:28 PM 43.8439 -74.3169 344° North 159 183 6,500  Level Boston Center
Sat 07:33:29 PM 43.8894 -74.3386 341° North 165 190 6,500  Level Boston Center
Sat 07:34:30 PM 43.9328 -74.3572 343° North 165 190 6,500  Level Boston Center
Sat 07:35:30 PM 43.9761 -74.3789 340° North 165 190 6,500  Level Boston Center
Sat 07:36:30 PM 44.0194 -74.4006 340° North 165 190 6,500  Level Boston Center
Sat 07:37:28 PM 44.0653 -74.4164 346° North 165 190 6,500  Level Boston Center
Sat 07:38:28 PM 44.1086 -74.4322 345° North 165 190 6,500  Level Boston Center
Sat 07:39:29 PM 44.1519 -74.4511 343° North 165 190 6,500  Level Boston Center
Sat 07:40:29 PM 44.1975 -74.4728 341° North 165 190 6,500  Level Boston Center
Sat 07:41:30 PM 44.2408 -74.4917 343° North 165 190 6,500  Level Boston Center
Sat 07:42:30 PM 44.2844 -74.5136 340° North 165 190 6,500  Level Boston Center
Sat 07:43:28 PM 44.3256 -74.5353 339° North 165 190 6,500  Level Boston Center
Sat 07:44:41 PM 44.3814 -74.5606 342° North 165 190 6,500 -45 Level Boston Center
Sat 07:45:42 PM 44.4269 -74.5797 343° North 165 190 6,400 -229 Descending Boston Center
Sat 07:46:52 PM 44.4725 -74.5986 344° North 165 190 6,000 -415 Descending Boston Center
Sat 07:47:52 PM 44.5281 -74.6242 342° North 171 197 5,500 -446 Descending Boston Center
Sat 07:48:53 PM 44.5778 -74.6433 345° North 171 197 5,100 -443 Descending Boston Center
Sat 07:49:54 PM 44.6275 -74.6656 342° North 176 203 4,600 -492 Descending Boston Center
Sat 07:51:00 PM 44.6690 -74.6898 337° Northwest  Level FlightAware Approximate
Sat 07:58:00 PM 44.9333 -74.8333 341° North  Level FlightAware Approximate
Sat 07:59:00 PM 44.9362 -74.8451 341° North  Level Estimated
Sat 08:00:00 PM 44.9362 -74.8451 341° North  Level Estimated
Sat 08:01:00 PM 44.9362 -74.8451 341° North  Level Estimated
Sat 08:02:00 PM 44.9362 -74.8451 341° North  Level Estimated
Sat 08:03:00 PM 44.9362 -74.8451 341° North  Level Estimated
Sat 08:04:00 PM 44.9362 -74.8451 341° North  Level Estimated
Sat 08:05:00 PM 44.9362 -74.8451 341° North  Level Estimated
Sat 08:06:00 PM 44.9362 -74.8451 341° North  Level Estimated
Sat 08:07:00 PM 44.9362 -74.8451 341° North  Level Estimated
Sat 08:08:00 PM 44.9362 -74.8451 341° North  Level Estimated
Sat 08:09:00 PM 44.9362 -74.8451 341° North  Level Estimated
Sat 08:10:00 PM 44.9362 -74.8451 341° North  Level Estimated
Sat 08:11:00 PM 44.9362 -74.8451 341° North  Level Estimated
Sat 08:12:00 PM 44.9362 -74.8451 341° North  Level Estimated
Sat 08:13:00 PM 44.9362 -74.8451 341° North  Level Estimated
Sat 08:14:00 PM 44.9362 -74.8451 341° North  Level Estimated
Sat 08:15:00 PM 44.9362 -74.8451 341° North  Level Estimated
Sat 08:16:00 PM 44.9362 -74.8451 341° North  Level Estimated

Login

Don't have an account? Register now (free) for customized features, flight alerts, and more!